Time;durP1;ratioP1;P1;durP2;ratioP2;P2;SDS_P1;SDS_P2;PMS_P1;PMS_P2;Temp;Humidity;BMP_temperature;BMP_pressure;BME280_temperature;BME280_humidity;BME280_pressure;Samples;Min_cycle;Max_cycle;Signal;HPM_P1;HPM_P2
2021/10/05 02:46:10;;;;;;;42.90;26.45;;;14.50;99.90;;;;;;5405072;24;20063;-84
2021/10/05 02:48:35;;;;;;;36.70;22.92;;;14.50;99.90;;;;;;4737003;30;20049;-84
2021/10/05 02:51:01;;;;;;;38.58;21.05;;;14.50;99.90;;;;;;4736327;30;20043;-84
2021/10/05 02:53:27;;;;;;;36.60;23.40;;;14.50;99.90;;;;;;4751393;30;20071;-84
2021/10/05 02:55:54;;;;;;;32.33;19.95;;;14.50;99.90;;;;;;4751277;30;20044;-84
2021/10/05 02:58:20;;;;;;;29.67;19.52;;;14.40;99.90;;;;;;4739210;30;20032;-84
2021/10/05 03:00:46;;;;;;;35.53;20.85;;;14.40;99.90;;;;;;4739636;30;20036;-85
2021/10/05 03:03:12;;;;;;;33.47;20.60;;;14.40;99.90;;;;;;4738877;30;20062;-85
2021/10/05 03:05:38;;;;;;;31.43;20.03;;;14.40;99.90;;;;;;4738757;30;20043;-85
2021/10/05 03:08:06;;;;;;;29.23;20.15;;;14.40;99.90;;;;;;4767981;30;20036;-85
2021/10/05 03:10:36;;;;;;;33.20;23.38;;;14.40;99.90;;;;;;4739087;30;20319;-87
2021/10/05 03:13:02;;;;;;;34.05;22.10;;;14.30;99.90;;;;;;4738591;30;20287;-86
2021/10/05 03:15:28;;;;;;;41.60;25.38;;;14.30;99.90;;;;;;4752698;30;20107;-84
2021/10/05 03:17:54;;;;;;;37.00;23.77;;;14.40;99.90;;;;;;4753232;30;20232;-85
2021/10/05 03:20:20;;;;;;;38.35;26.23;;;14.30;99.90;;;;;;4738256;30;20044;-84
2021/10/05 03:22:45;;;;;;;34.95;22.95;;;14.40;99.90;;;;;;4738238;30;20047;-84
2021/10/05 03:25:11;;;;;;;40.60;25.63;;;14.40;99.90;;;;;;4738358;30;20043;-85
2021/10/05 03:27:37;;;;;;;42.25;25.98;;;14.40;99.90;;;;;;4738605;30;20063;-84
2021/10/05 03:30:05;;;;;;;41.28;26.52;;;14.40;99.90;;;;;;4738307;30;20078;-85
2021/10/05 03:32:31;;;;;;;37.70;25.40;;;14.40;99.90;;;;;;4737735;30;20036;-84
2021/10/05 03:34:56;;;;;;;49.33;29.38;;;14.40;99.90;;;;;;4737669;30;20042;-84
2021/10/05 03:37:22;;;;;;;38.30;25.17;;;14.50;99.90;;;;;;4737935;30;20040;-85
2021/10/05 03:39:48;;;;;;;41.92;26.63;;;14.50;99.90;;;;;;4738016;30;20142;-85
2021/10/05 03:42:14;;;;;;;50.63;30.13;;;14.60;99.90;;;;;;4751807;30;20040;-85
2021/10/05 03:44:40;;;;;;;37.33;22.92;;;14.70;99.90;;;;;;4737046;30;20024;-85
2021/10/05 03:47:06;;;;;;;55.75;31.17;;;14.70;99.90;;;;;;4762651;30;20078;-85
2021/10/05 03:49:32;;;;;;;51.47;29.60;;;14.80;99.90;;;;;;4752131;30;20320;-85
2021/10/05 03:51:58;;;;;;;49.88;30.75;;;14.90;99.90;;;;;;4752193;30;20059;-85
2021/10/05 03:54:24;;;;;;;50.05;32.35;;;15.00;99.90;;;;;;4752365;30;20032;-85
2021/10/05 03:56:49;;;;;;;53.15;30.55;;;15.10;99.90;;;;;;4751836;30;20024;-84
2021/10/05 03:59:15;;;;;;;53.50;29.38;;;15.20;99.90;;;;;;4751722;30;20204;-84
2021/10/05 04:01:43;;;;;;;48.03;30.25;;;15.30;99.90;;;;;;4751601;30;20227;-84
2021/10/05 04:04:09;;;;;;;47.22;29.13;;;15.40;99.90;;;;;;4751744;30;20046;-84
2021/10/05 04:06:35;;;;;;;50.85;28.65;;;15.50;99.90;;;;;;4736591;30;20043;-84
2021/10/05 04:09:03;;;;;;;46.30;29.88;;;15.50;99.90;;;;;;4751877;30;20338;-84
2021/10/05 04:11:29;;;;;;;48.92;29.30;;;15.50;99.90;;;;;;4751502;30;20032;-85
2021/10/05 04:13:55;;;;;;;45.53;28.65;;;15.50;99.90;;;;;;4751425;30;20040;-84
2021/10/05 04:16:21;;;;;;;42.58;26.65;;;15.50;99.90;;;;;;4744111;30;20025;-84
2021/10/05 04:18:47;;;;;;;39.38;25.10;;;15.60;99.90;;;;;;4747939;30;20144;-85
2021/10/05 04:21:13;;;;;;;43.33;26.00;;;15.60;99.90;;;;;;4748042;30;20040;-85
2021/10/05 04:23:39;;;;;;;43.28;26.15;;;15.70;99.90;;;;;;4747276;30;20044;-85
2021/10/05 04:26:06;;;;;;;39.47;24.15;;;15.80;99.90;;;;;;4747255;30;20044;-85
2021/10/05 04:28:32;;;;;;;33.70;22.92;;;15.80;99.90;;;;;;4747807;30;20106;-84
2021/10/05 04:30:58;;;;;;;34.25;21.73;;;15.90;99.90;;;;;;4747710;30;20047;-84
2021/10/05 04:33:24;;;;;;;36.72;22.98;;;16.00;99.90;;;;;;4747297;30;20044;-84
2021/10/05 04:35:50;;;;;;;36.50;23.92;;;16.10;99.90;;;;;;4733099;30;20041;-85
2021/10/05 04:38:16;;;;;;;34.25;22.83;;;16.10;99.90;;;;;;4747886;30;20044;-85
2021/10/05 04:40:42;;;;;;;31.90;22.40;;;16.10;99.90;;;;;;4732900;30;20040;-85
2021/10/05 04:43:07;;;;;;;32.38;22.08;;;16.20;99.90;;;;;;4732643;30;20075;-85
2021/10/05 04:45:33;;;;;;;33.53;22.55;;;16.20;99.90;;;;;;4734078;30;20071;-85
2021/10/05 04:48:03;;;;;;;37.20;23.33;;;16.20;99.90;;;;;;4718545;30;20047;-85
2021/10/05 04:50:29;;;;;;;35.05;21.23;;;16.20;99.90;;;;;;4732826;30;20162;-85
2021/10/05 04:52:55;;;;;;;32.20;20.85;;;16.20;99.90;;;;;;4732562;30;20040;-85
2021/10/05 04:55:20;;;;;;;33.25;20.77;;;16.20;99.90;;;;;;4732735;30;20036;-85
2021/10/05 04:57:46;;;;;;;31.27;21.35;;;16.20;99.90;;;;;;4733363;30;20086;-85
2021/10/05 05:00:12;;;;;;;36.58;20.50;;;16.20;99.90;;;;;;4732786;30;20340;-85
2021/10/05 05:02:38;;;;;;;34.13;20.95;;;16.20;99.90;;;;;;4733014;30;20112;-85
2021/10/05 05:05:04;;;;;;;29.02;20.25;;;16.20;99.90;;;;;;4748638;30;20064;-84
2021/10/05 05:07:30;;;;;;;31.80;20.87;;;16.20;99.90;;;;;;4732719;30;20041;-85
2021/10/05 05:09:56;;;;;;;31.95;20.58;;;16.20;99.90;;;;;;4730093;30;20265;-85
2021/10/05 05:12:22;;;;;;;28.90;20.20;;;16.20;99.90;;;;;;4716587;30;20108;-86
2021/10/05 05:14:47;;;;;;;30.48;20.02;;;16.20;99.90;;;;;;4719417;30;20099;-85
2021/10/05 05:17:13;;;;;;;32.03;21.25;;;16.30;99.90;;;;;;4717430;30;20052;-85
2021/10/05 05:19:39;;;;;;;31.08;19.30;;;16.30;99.90;;;;;;4731643;30;20040;-85
2021/10/05 05:22:05;;;;;;;32.45;19.50;;;16.30;99.90;;;;;;4732216;30;20255;-85
2021/10/05 05:24:30;;;;;;;29.10;19.02;;;16.30;99.90;;;;;;4731863;30;20376;-85
2021/10/05 05:26:56;;;;;;;29.33;17.85;;;16.40;99.90;;;;;;4717159;30;20032;-85
2021/10/05 05:29:22;;;;;;;26.42;17.95;;;16.40;99.90;;;;;;4713647;30;20041;-85
2021/10/05 05:31:48;;;;;;;26.70;19.45;;;16.50;99.90;;;;;;4731164;30;20107;-85
2021/10/05 05:34:14;;;;;;;28.80;17.30;;;16.50;99.90;;;;;;4729131;30;20033;-86
2021/10/05 05:36:40;;;;;;;32.80;17.33;;;16.60;99.90;;;;;;4739525;30;20040;-86
2021/10/05 05:39:06;;;;;;;36.75;20.00;;;16.50;99.90;;;;;;4720034;30;20286;-85
2021/10/05 05:41:32;;;;;;;34.00;18.42;;;16.60;99.90;;;;;;4720583;30;20117;-85
2021/10/05 05:43:58;;;;;;;35.03;17.45;;;16.60;99.90;;;;;;4720714;30;20127;-85
2021/10/05 05:46:24;;;;;;;36.60;19.38;;;16.70;99.90;;;;;;4740361;30;20056;-85
2021/10/05 05:48:49;;;;;;;26.60;16.73;;;16.80;99.90;;;;;;4765916;30;20059;-85
2021/10/05 05:51:15;;;;;;;32.97;17.02;;;16.80;99.90;;;;;;4742525;30;20340;-85
2021/10/05 05:53:41;;;;;;;26.00;15.63;;;16.90;99.90;;;;;;4751638;30;20044;-86
2021/10/05 05:56:07;;;;;;;24.88;17.33;;;16.90;99.90;;;;;;4737382;30;20039;-84
2021/10/05 05:58:32;;;;;;;26.20;16.73;;;16.90;99.90;;;;;;4742333;30;20039;-86
2021/10/05 06:00:58;;;;;;;27.30;16.23;;;17.00;99.90;;;;;;4737492;30;20082;-86
2021/10/05 06:03:24;;;;;;;28.25;16.60;;;17.00;99.90;;;;;;4737103;30;20059;-86
2021/10/05 06:05:50;;;;;;;24.05;15.95;;;17.10;99.90;;;;;;4737136;30;20035;-86
2021/10/05 06:08:16;;;;;;;24.13;15.25;;;17.10;99.90;;;;;;4736695;30;20036;-84
2021/10/05 06:10:42;;;;;;;40.85;17.42;;;17.20;99.90;;;;;;4759458;30;20103;-84
2021/10/05 06:13:08;;;;;;;26.43;15.90;;;17.30;99.90;;;;;;4735796;30;20112;-87
2021/10/05 06:15:36;;;;;;;25.13;16.15;;;17.50;99.90;;;;;;4735628;30;20071;-86
2021/10/05 06:18:02;;;;;;;24.33;14.73;;;17.50;99.90;;;;;;4751318;30;20032;-86
2021/10/05 06:20:29;;;;;;;26.20;14.23;;;17.60;99.90;;;;;;4727112;30;20089;-86
2021/10/05 06:22:55;;;;;;;23.38;14.27;;;17.80;99.90;;;;;;4723122;30;20040;-86
2021/10/05 06:25:24;;;;;;;18.13;14.07;;;17.80;99.80;;;;;;4740679;30;20477;-86
2021/10/05 06:27:51;;;;;;;25.50;13.57;;;18.00;99.40;;;;;;4729700;30;20290;-86
2021/10/05 06:30:18;;;;;;;20.13;14.35;;;18.00;99.00;;;;;;4741685;30;20036;-86
2021/10/05 06:32:52;;;;;;;;;;;18.00;99.10;;;;;;4740729;30;20047;-86
2021/10/05 06:35:24;;;;;;;20.95;13.15;;;18.10;98.70;;;;;;4726057;30;19933;-86
2021/10/05 06:37:53;;;;;;;25.27;14.05;;;18.10;98.70;;;;;;4741499;30;20116;-86
2021/10/05 06:40:23;;;;;;;21.75;13.23;;;18.20;98.50;;;;;;4743538;30;20035;-86
2021/10/05 06:42:49;;;;;;;17.90;12.27;;;18.20;98.50;;;;;;4746961;30;20040;-87
2021/10/05 06:45:15;;;;;;;19.20;12.80;;;18.30;98.40;;;;;;4729896;30;20021;-87
2021/10/05 06:47:41;;;;;;;21.08;12.43;;;18.40;98.30;;;;;;4732047;30;20382;-86
2021/10/05 06:50:07;;;;;;;20.00;13.32;;;18.50;98.30;;;;;;4745201;30;20032;-87
2021/10/05 06:52:34;;;;;;;24.27;13.05;;;18.60;97.90;;;;;;4746903;30;20036;-86
2021/10/05 06:55:00;;;;;;;27.20;13.52;;;18.60;97.60;;;;;;4721876;30;20039;-87
2021/10/05 06:57:26;;;;;;;20.30;13.00;;;18.70;97.60;;;;;;4731316;30;20036;-87
2021/10/05 06:59:51;;;;;;;23.90;13.38;;;18.80;97.20;;;;;;4731312;30;20033;-87
2021/10/05 07:02:17;;;;;;;23.30;12.55;;;19.00;97.00;;;;;;4738938;30;20036;-86
2021/10/05 07:04:43;;;;;;;21.75;12.93;;;19.00;96.70;;;;;;4735698;30;20020;-85
2021/10/05 07:07:09;;;;;;;18.85;12.38;;;19.00;96.60;;;;;;4749521;30;20035;-86
2021/10/05 07:09:35;;;;;;;19.38;12.20;;;19.10;96.50;;;;;;4749372;30;20082;-85
2021/10/05 07:12:01;;;;;;;21.05;11.45;;;19.20;96.00;;;;;;4735102;30;20036;-86
2021/10/05 07:14:27;;;;;;;22.67;11.45;;;19.30;96.10;;;;;;4764258;30;20270;-86
2021/10/05 07:16:52;;;;;;;17.02;10.00;;;19.40;96.00;;;;;;4741445;30;20111;-86
2021/10/05 07:19:18;;;;;;;16.70;11.02;;;19.40;95.40;;;;;;4764173;30;20232;-86
2021/10/05 07:21:44;;;;;;;17.95;11.07;;;19.60;95.40;;;;;;4749491;30;20036;-86
2021/10/05 07:24:10;;;;;;;19.38;11.52;;;19.70;95.10;;;;;;4763907;30;20054;-86
2021/10/05 07:26:36;;;;;;;18.25;10.48;;;19.70;95.00;;;;;;4763544;30;20115;-86
2021/10/05 07:29:02;;;;;;;15.68;10.40;;;19.80;94.50;;;;;;4749075;30;20068;-86
2021/10/05 07:31:31;;;;;;;19.52;11.02;;;19.90;94.30;;;;;;4748991;30;20123;-86
2021/10/05 07:33:57;;;;;;;28.42;11.30;;;19.90;94.40;;;;;;4749530;30;20469;-86
2021/10/05 07:36:23;;;;;;;16.17;10.30;;;20.00;93.90;;;;;;4749596;30;20063;-86
2021/10/05 07:38:49;;;;;;;15.90;10.98;;;20.20;93.70;;;;;;4749475;30;20097;-86
2021/10/05 07:41:15;;;;;;;22.60;10.75;;;20.30;93.50;;;;;;4749217;30;20044;-86
2021/10/05 07:43:41;;;;;;;22.02;11.02;;;20.40;93.20;;;;;;4749771;30;20051;-86
2021/10/05 07:46:07;;;;;;;17.17;9.50;;;20.50;93.00;;;;;;4764435;30;20079;-86
2021/10/05 07:48:33;;;;;;;16.52;9.93;;;20.60;92.20;;;;;;4749437;30;20393;-87
2021/10/05 07:50:59;;;;;;;21.35;10.52;;;20.70;92.00;;;;;;4749062;30;20072;-86
2021/10/05 07:53:25;;;;;;;17.25;9.50;;;20.80;91.60;;;;;;4734449;30;20027;-86
2021/10/05 07:55:51;;;;;;;22.60;9.50;;;20.90;91.40;;;;;;4748985;30;20042;-87
2021/10/05 07:58:20;;;;;;;18.02;9.80;;;21.00;90.90;;;;;;4749353;30;20123;-87
2021/10/05 08:00:45;;;;;;;17.52;9.50;;;21.10;90.70;;;;;;4734471;30;20367;-87
2021/10/05 08:03:11;;;;;;;16.33;9.70;;;21.10;90.50;;;;;;4748994;30;20103;-87
2021/10/05 08:05:37;;;;;;;18.23;9.57;;;21.20;90.50;;;;;;4749416;30;20239;-87
2021/10/05 08:08:08;;;;;;;15.50;9.73;;;21.30;90.70;;;;;;4763587;30;20036;-87
2021/10/05 08:10:35;;;;;;;12.48;9.27;;;21.40;89.80;;;;;;4749384;30;20224;-87
2021/10/05 08:13:01;;;;;;;17.55;9.27;;;21.50;89.50;;;;;;4749470;30;20397;-87
2021/10/05 08:15:28;;;;;;;18.17;10.10;;;21.60;89.00;;;;;;4749015;30;20044;-87
2021/10/05 08:17:55;;;;;;;;;;;21.60;88.90;;;;;;4749312;30;20063;-87
2021/10/05 08:20:21;;;;;;;23.27;8.63;;;21.60;88.40;;;;;;4748278;30;19913;-86
2021/10/05 08:22:47;;;;;;;12.90;9.68;;;21.80;87.70;;;;;;4748584;30;20242;-86
2021/10/05 08:25:13;;;;;;;14.00;9.43;;;22.00;88.70;;;;;;4748223;30;20088;-86
2021/10/05 08:27:39;;;;;;;13.93;8.98;;;22.10;87.20;;;;;;4763439;30;20032;-86
2021/10/05 08:30:07;;;;;;;12.95;7.93;;;22.20;85.50;;;;;;4749256;30;20692;-82
2021/10/05 08:32:33;;;;;;;16.45;9.50;;;22.40;83.70;;;;;;4749266;30;20335;-86
2021/10/05 08:34:59;;;;;;;16.90;8.83;;;22.50;84.50;;;;;;4747986;30;20227;-86
2021/10/05 08:37:25;;;;;;;21.97;9.50;;;22.60;84.00;;;;;;4749250;30;20040;-86
2021/10/05 08:39:51;;;;;;;19.55;9.23;;;22.70;83.40;;;;;;4748443;30;20285;-86
2021/10/05 08:42:22;;;;;;;19.52;9.15;;;22.70;82.10;;;;;;4749081;30;20059;-86
2021/10/05 08:44:48;;;;;;;15.75;9.27;;;22.80;81.70;;;;;;4748386;30;20131;-86
2021/10/05 08:47:16;;;;;;;12.13;8.77;;;22.90;82.20;;;;;;4747759;30;20083;-86
2021/10/05 08:49:43;;;;;;;16.08;9.13;;;23.00;81.20;;;;;;4748584;30;20070;-87
2021/10/05 08:52:10;;;;;;;19.48;8.93;;;23.00;80.70;;;;;;4747840;30;20087;-86
2021/10/05 08:54:39;;;;;;;14.20;8.68;;;23.00;81.00;;;;;;4762733;30;20081;-86
2021/10/05 08:57:06;;;;;;;14.50;8.68;;;23.10;80.30;;;;;;4748138;30;20045;-86
2021/10/05 08:59:32;;;;;;;12.40;8.25;;;23.10;80.50;;;;;;4747479;30;20097;-86
2021/10/05 09:01:57;;;;;;;12.80;8.40;;;23.20;80.40;;;;;;4748116;30;20028;-85
2021/10/05 09:04:23;;;;;;;17.23;8.15;;;23.30;79.70;;;;;;4734663;30;20058;-86
2021/10/05 09:06:54;;;;;;;20.65;7.28;;;23.30;76.10;;;;;;4750335;30;20032;-85
2021/10/05 09:09:21;;;;;;;12.80;7.35;;;23.40;76.00;;;;;;4763426;30;20058;-85
2021/10/05 09:11:52;;;;;;;14.93;7.70;;;23.50;75.30;;;;;;4749752;30;20058;-86
2021/10/05 09:14:18;;;;;;;15.75;7.30;;;23.50;75.50;;;;;;4749930;30;20397;-86
2021/10/05 09:16:44;;;;;;;21.92;8.10;;;23.80;75.40;;;;;;4739687;30;20047;-86
2021/10/05 09:19:18;;;;;;;16.92;7.90;;;23.90;74.90;;;;;;4746715;30;20380;-85
2021/10/05 09:21:49;;;;;;;11.30;7.32;;;24.10;74.30;;;;;;4746030;30;20060;-86
2021/10/05 09:24:22;;;;;;;12.90;7.47;;;24.20;73.40;;;;;;4746197;30;20326;-85
2021/10/05 09:26:52;;;;;;;14.95;8.27;;;24.20;73.00;;;;;;4746870;30;20036;-86
2021/10/05 09:29:28;;;;;;;16.38;7.93;;;24.20;73.70;;;;;;4747116;30;20037;-86
2021/10/05 09:32:08;;;;;;;19.63;7.80;;;24.40;73.80;;;;;;4734604;30;20032;-86
2021/10/05 09:34:53;;;;;;;13.68;7.75;;;24.50;73.00;;;;;;4716499;30;20037;-87
2021/10/05 09:40:33;;;;;;;11.13;7.93;;;24.60;73.10;;;;;;4730201;30;20033;-85
2021/10/05 09:42:59;;;;;;;12.15;7.78;;;24.80;72.80;;;;;;4715863;30;20061;-85
2021/10/05 09:45:29;;;;;;;13.10;7.63;;;24.80;72.30;;;;;;4715679;30;20065;-84
2021/10/05 09:48:36;;;;;;;15.65;7.72;;;24.80;71.50;;;;;;4730655;30;20067;-84
2021/10/05 09:51:24;;;;;;;14.65;7.80;;;24.90;71.80;;;;;;4663943;30;20049;-84
2021/10/05 09:53:51;;;;;;;11.88;6.93;;;25.00;71.30;;;;;;4678245;30;20066;-86
2021/10/05 09:56:17;;;;;;;15.25;7.57;;;25.00;70.60;;;;;;4677033;30;20125;-85
2021/10/05 09:58:43;;;;;;;16.98;7.53;;;24.90;70.80;;;;;;4677644;30;20086;-85
2021/10/05 10:01:09;;;;;;;12.90;7.40;;;25.00;70.50;;;;;;4663441;30;20046;-85
2021/10/05 10:03:37;;;;;;;9.90;7.32;;;24.90;70.30;;;;;;4678843;30;20039;-85
2021/10/05 10:06:04;;;;;;;17.38;7.38;;;25.00;70.00;;;;;;4694333;30;20042;-85
2021/10/05 10:08:33;;;;;;;20.92;8.00;;;25.10;70.20;;;;;;4697294;30;20076;-84
2021/10/05 10:10:59;;;;;;;16.48;7.20;;;25.20;69.70;;;;;;4712433;30;20088;-85
2021/10/05 10:13:25;;;;;;;15.40;7.25;;;25.20;69.00;;;;;;4712022;30;20045;-85
2021/10/05 10:15:57;;;;;;;13.85;7.35;;;25.30;68.60;;;;;;4712347;30;20056;-84
2021/10/05 10:18:23;;;;;;;15.23;7.00;;;25.40;67.40;;;;;;4698584;30;20045;-85
2021/10/05 10:21:05;;;;;;;10.77;6.47;;;25.40;67.70;;;;;;4696475;30;20115;-84
2021/10/05 10:23:32;;;;;;;9.25;5.72;;;25.60;67.70;;;;;;4699871;30;20045;-84
2021/10/05 10:26:04;;;;;;;16.60;6.22;;;25.70;66.50;;;;;;4699339;30;20033;-84
2021/10/05 10:28:37;;;;;;;17.15;6.70;;;25.90;66.10;;;;;;4753202;30;20052;-84
2021/10/05 10:31:28;;;;;;;10.88;6.68;;;26.00;64.30;;;;;;4767091;30;20036;-85
2021/10/05 10:33:55;;;;;;;12.75;5.90;;;25.90;64.40;;;;;;4768253;30;20578;-84
2021/10/05 10:36:41;;;;;;;11.82;5.78;;;26.00;64.10;;;;;;4768410;30;20035;-84
2021/10/05 10:39:07;;;;;;;12.55;5.82;;;26.10;63.60;;;;;;4752465;30;20067;-84
2021/10/05 10:41:33;;;;;;;8.88;5.60;;;26.20;63.60;;;;;;4752798;30;20024;-84
2021/10/05 10:44:04;;;;;;;11.93;6.27;;;26.30;62.60;;;;;;4752227;30;20127;-84
2021/10/05 10:46:38;;;;;;;23.88;6.20;;;26.30;63.10;;;;;;4743609;30;20348;-84
2021/10/05 10:49:12;;;;;;;15.68;7.13;;;26.50;62.30;;;;;;4749513;30;20059;-84
2021/10/05 10:51:41;;;;;;;10.82;7.00;;;26.60;61.90;;;;;;4748943;30;20040;-84
2021/10/05 10:54:26;;;;;;;17.10;6.38;;;26.50;61.60;;;;;;4748879;30;20040;-81
2021/10/05 10:57:08;;;;;;;15.25;5.63;;;26.50;61.30;;;;;;4749124;30;20051;-81
2021/10/05 10:59:35;;;;;;;15.38;5.63;;;26.60;61.10;;;;;;4742182;30;20113;-81
2021/10/05 11:02:03;;;;;;;15.35;6.03;;;26.70;62.30;;;;;;4764931;30;20077;-84
2021/10/05 11:04:30;;;;;;;15.55;6.80;;;26.90;62.50;;;;;;4733803;30;20053;-83
2021/10/05 11:06:58;;;;;;;10.57;6.03;;;26.90;62.80;;;;;;4732022;30;20037;-84
2021/10/05 11:09:33;;;;;;;12.77;6.40;;;27.10;62.40;;;;;;4732854;30;20048;-84
2021/10/05 11:12:00;;;;;;;12.70;6.05;;;27.20;62.10;;;;;;4733501;30;20102;-84
2021/10/05 11:14:28;;;;;;;;;;;27.10;60.40;;;;;;4734308;30;20059;-84
2021/10/05 11:17:03;;;;;;;22.35;6.70;;;26.90;60.20;;;;;;4744551;30;20150;-85
2021/10/05 11:19:31;;;;;;;18.00;6.47;;;26.90;61.40;;;;;;4759269;30;20098;-84
2021/10/05 11:21:58;;;;;;;12.57;5.90;;;26.80;61.00;;;;;;4736334;30;20036;-84
2021/10/05 11:24:36;;;;;;;11.13;6.35;;;26.90;61.20;;;;;;4737249;30;20060;-83
2021/10/05 11:27:10;;;;;;;22.48;6.32;;;26.80;61.00;;;;;;4754437;30;20031;-85
2021/10/05 11:29:36;;;;;;;10.65;6.10;;;26.90;61.10;;;;;;4754113;30;20054;-81
2021/10/05 11:32:05;;;;;;;16.23;6.30;;;26.80;60.10;;;;;;4765665;30;20028;-84
2021/10/05 11:34:37;;;;;;;11.88;5.95;;;26.70;60.30;;;;;;4751758;30;20028;-82
2021/10/05 11:37:06;;;;;;;14.93;6.05;;;26.50;60.90;;;;;;4735893;30;20339;-82
2021/10/05 11:39:33;;;;;;;11.57;6.03;;;26.20;61.00;;;;;;4736279;30;20368;-84
2021/10/05 11:42:11;;;;;;;10.02;5.82;;;26.10;62.50;;;;;;4736827;30;20057;-84
2021/10/05 11:44:43;;;;;;;23.73;6.95;;;26.00;62.50;;;;;;4735552;30;20339;-84
2021/10/05 11:47:12;;;;;;;11.32;6.68;;;25.90;63.10;;;;;;4736004;30;20075;-84
2021/10/05 11:49:51;;;;;;;17.25;6.88;;;25.90;63.60;;;;;;4756167;30;20032;-84
2021/10/05 11:52:25;;;;;;;17.15;5.90;;;25.90;63.10;;;;;;4743727;30;20039;-85
2021/10/05 11:54:57;;;;;;;11.38;5.75;;;25.90;63.40;;;;;;4734629;30;20050;-85
2021/10/05 11:57:37;;;;;;;7.22;5.80;;;26.00;62.00;;;;;;4744702;30;20049;-83
2021/10/05 12:00:11;;;;;;;15.35;5.93;;;26.20;62.20;;;;;;4744520;30;20044;-83
2021/10/05 12:02:41;;;;;;;15.75;6.28;;;26.40;60.60;;;;;;4743909;30;20079;-83
2021/10/05 12:05:08;;;;;;;14.07;6.07;;;26.40;61.20;;;;;;4744384;30;20036;-82
2021/10/05 12:07:36;;;;;;;19.98;6.32;;;26.40;62.20;;;;;;4744666;30;20052;-83
2021/10/05 12:10:06;;;;;;;14.55;6.28;;;26.30;62.10;;;;;;4744020;30;20040;-82
2021/10/05 12:12:38;;;;;;;9.98;6.50;;;26.30;63.20;;;;;;4744254;30;20044;-82
2021/10/05 12:15:15;;;;;;;15.63;5.85;;;26.30;62.70;;;;;;4744219;30;20429;-82
2021/10/05 12:17:42;;;;;;;;;;;26.20;63.00;;;;;;4744729;30;20044;-81
2021/10/05 12:20:12;;;;;;;;;;;26.10;62.20;;;;;;4730539;30;20226;-84
2021/10/05 12:22:43;;;;;;;9.63;5.60;;;26.10;61.60;;;;;;4730793;30;19957;-85
2021/10/05 12:25:17;;;;;;;13.63;6.30;;;26.30;61.30;;;;;;4730700;30;20039;-85
2021/10/05 12:27:47;;;;;;;8.45;5.45;;;26.60;60.50;;;;;;4736112;30;20091;-85
2021/10/05 12:30:14;;;;;;;21.13;5.65;;;26.70;59.80;;;;;;4749475;30;20028;-84
2021/10/05 12:32:44;;;;;;;;;;;26.80;60.70;;;;;;4748971;30;20027;-85
2021/10/05 12:35:37;;;;;;;22.15;5.65;;;27.00;59.40;;;;;;4749184;30;19910;-85
2021/10/05 12:38:10;;;;;;;8.98;5.35;;;27.20;58.90;;;;;;4749053;30;20046;-84
2021/10/05 12:40:49;;;;;;;19.52;5.00;;;27.30;57.40;;;;;;4749306;30;20039;-83
2021/10/05 12:43:20;;;;;;;9.77;5.43;;;27.20;57.20;;;;;;4748618;30;20323;-83
2021/10/05 12:45:58;;;;;;;7.57;5.03;;;27.20;57.00;;;;;;4747149;30;20032;-82
2021/10/05 12:48:51;;;;;;;14.60;5.70;;;27.10;57.30;;;;;;4748287;30;20063;-83
2021/10/05 12:51:17;;;;;;;11.05;4.75;;;27.00;57.50;;;;;;4695255;30;20092;-82
2021/10/05 12:53:45;;;;;;;19.13;5.35;;;27.00;58.20;;;;;;4709041;30;20343;-83
2021/10/05 12:56:11;;;;;;;9.20;4.72;;;27.00;58.50;;;;;;4709484;30;20037;-83
2021/10/05 12:58:38;;;;;;;11.20;4.70;;;27.00;58.20;;;;;;4694832;30;20061;-83
2021/10/05 13:01:05;;;;;;;10.65;5.35;;;26.90;57.70;;;;;;4708951;30;20071;-82
2021/10/05 13:03:32;;;;;;;17.88;5.70;;;27.00;57.90;;;;;;4709399;30;20041;-83
2021/10/05 13:05:58;;;;;;;11.88;5.28;;;26.80;57.90;;;;;;4699765;30;20045;-83
2021/10/05 13:08:24;;;;;;;13.52;5.88;;;26.80;58.70;;;;;;4691697;30;20410;-82
2021/10/05 13:10:50;;;;;;;14.27;5.50;;;26.60;58.60;;;;;;4692254;30;20033;-82
2021/10/05 13:13:16;;;;;;;12.20;5.63;;;26.50;58.80;;;;;;4692203;30;20261;-82
2021/10/05 13:15:41;;;;;;;18.15;6.00;;;26.40;59.60;;;;;;4693377;30;20050;-83
2021/10/05 13:18:07;;;;;;;12.90;5.50;;;26.40;59.90;;;;;;4695397;30;20234;-82
2021/10/05 13:20:33;;;;;;;12.85;5.00;;;26.30;60.00;;;;;;4692245;30;20053;-82
2021/10/05 13:22:59;;;;;;;14.97;6.07;;;26.20;60.20;;;;;;4691931;30;20045;-83
2021/10/05 13:25:25;;;;;;;8.48;4.95;;;26.20;60.30;;;;;;4691758;30;20047;-82
2021/10/05 13:27:51;;;;;;;21.20;5.33;;;26.20;60.70;;;;;;4715612;30;20056;-83
2021/10/05 13:30:19;;;;;;;12.82;5.47;;;26.30;60.50;;;;;;4730297;30;20047;-83
2021/10/05 13:32:46;;;;;;;13.57;5.40;;;26.30;60.30;;;;;;4744767;30;20066;-82
2021/10/05 13:35:12;;;;;;;8.93;5.15;;;26.30;60.40;;;;;;4730322;30;20283;-83
2021/10/05 13:37:40;;;;;;;16.33;5.60;;;26.20;60.50;;;;;;4745230;30;20233;-82
2021/10/05 13:40:07;;;;;;;7.05;5.30;;;26.30;60.10;;;;;;4730365;30;20290;-82
2021/10/05 13:42:34;;;;;;;8.60;5.80;;;26.30;60.20;;;;;;4730248;30;20041;-84
2021/10/05 13:44:59;;;;;;;12.63;5.78;;;26.30;59.70;;;;;;4715807;30;20323;-85
2021/10/05 13:47:25;;;;;;;17.60;6.00;;;26.30;60.10;;;;;;4744124;30;20060;-85
2021/10/05 13:49:51;;;;;;;14.25;5.88;;;26.30;59.30;;;;;;4747928;30;20044;-84
2021/10/05 13:52:17;;;;;;;13.25;6.53;;;26.30;59.40;;;;;;4763236;30;20142;-84
2021/10/05 13:54:43;;;;;;;18.33;5.60;;;26.30;59.30;;;;;;4734095;30;20026;-84
2021/10/05 13:57:09;;;;;;;;;;;26.30;59.40;;;;;;4751497;30;20032;-84
2021/10/05 13:59:36;;;;;;;12.90;5.88;;;26.20;59.80;;;;;;4751850;30;19965;-84
2021/10/05 14:02:02;;;;;;;12.47;5.80;;;26.20;60.10;;;;;;4766771;30;20035;-83
2021/10/05 14:04:27;;;;;;;9.75;5.70;;;26.20;59.90;;;;;;4752122;30;20298;-85
2021/10/05 14:06:53;;;;;;;13.60;5.05;;;26.10;59.50;;;;;;4736427;30;20020;-84
2021/10/05 14:09:19;;;;;;;9.90;5.00;;;26.20;60.30;;;;;;4751852;30;20031;-84
2021/10/05 14:11:45;;;;;;;11.48;5.18;;;26.30;60.80;;;;;;4751622;30;20328;-85
2021/10/05 14:14:11;;;;;;;7.35;4.93;;;26.30;59.80;;;;;;4736575;30;20094;-85
2021/10/05 14:16:37;;;;;;;16.17;6.57;;;26.20;59.70;;;;;;4738596;30;20040;-84
2021/10/05 14:19:04;;;;;;;17.75;6.43;;;26.20;59.60;;;;;;4734065;30;20036;-85
2021/10/05 14:21:30;;;;;;;17.40;6.07;;;26.20;59.90;;;;;;4735127;30;20090;-85
2021/10/05 14:23:56;;;;;;;10.70;5.50;;;26.10;59.50;;;;;;4734129;30;20041;-84
2021/10/05 14:26:22;;;;;;;12.00;5.47;;;26.10;60.00;;;;;;4734638;30;20209;-85
2021/10/05 14:28:48;;;;;;;8.18;5.22;;;26.00;59.50;;;;;;4719877;30;20048;-85
2021/10/05 14:31:14;;;;;;;17.83;6.53;;;26.00;59.70;;;;;;4748207;30;20099;-85
2021/10/05 14:33:40;;;;;;;10.48;5.22;;;26.00;59.50;;;;;;4734305;30;20047;-84
2021/10/05 14:36:06;;;;;;;10.07;5.30;;;26.00;59.30;;;;;;4733960;30;20120;-85
2021/10/05 14:38:32;;;;;;;10.60;5.65;;;25.90;59.70;;;;;;4734031;30;20062;-84
2021/10/05 14:40:58;;;;;;;13.85;5.25;;;25.90;59.30;;;;;;4733699;30;20071;-84
2021/10/05 14:43:24;;;;;;;18.33;6.55;;;25.80;60.00;;;;;;4734314;30;20125;-84
2021/10/05 14:45:50;;;;;;;14.60;5.72;;;25.80;59.90;;;;;;4736283;30;20029;-84
2021/10/05 14:48:16;;;;;;;14.95;6.43;;;25.80;60.50;;;;;;4751092;30;20334;-84
2021/10/05 14:50:42;;;;;;;17.40;6.10;;;25.80;60.80;;;;;;4750892;30;20071;-84
2021/10/05 14:53:08;;;;;;;10.27;5.97;;;25.70;60.60;;;;;;4752561;30;20040;-85
2021/10/05 14:55:34;;;;;;;10.93;5.95;;;25.60;60.70;;;;;;4749944;30;20097;-85
2021/10/05 14:58:00;;;;;;;15.43;6.78;;;25.60;61.70;;;;;;4751307;30;20165;-85
2021/10/05 15:00:25;;;;;;;9.27;6.07;;;25.60;61.60;;;;;;4751191;30;20086;-85
2021/10/05 15:02:51;;;;;;;14.40;6.07;;;25.60;61.70;;;;;;4765366;30;20069;-85
2021/10/05 15:05:17;;;;;;;11.70;5.38;;;25.60;61.80;;;;;;4750672;30;20040;-85
2021/10/05 15:07:44;;;;;;;17.52;5.55;;;25.50;61.90;;;;;;4750002;30;20082;-85
2021/10/05 15:10:13;;;;;;;13.98;5.93;;;25.50;61.80;;;;;;4750546;30;20040;-84
2021/10/05 15:12:39;;;;;;;15.18;6.10;;;25.40;61.70;;;;;;4752327;30;20064;-84
2021/10/05 15:15:06;;;;;;;10.35;6.03;;;25.40;62.00;;;;;;4765530;30;20024;-84
2021/10/05 15:17:33;;;;;;;10.48;6.35;;;25.30;61.90;;;;;;4738744;30;20093;-85
2021/10/05 15:19:59;;;;;;;15.27;6.23;;;25.30;62.10;;;;;;4750087;30;20036;-84
2021/10/05 15:22:25;;;;;;;20.02;6.05;;;25.30;62.30;;;;;;4750634;30;20303;-84
2021/10/05 15:24:51;;;;;;;16.65;6.80;;;25.20;62.60;;;;;;4750873;30;20036;-84
2021/10/05 15:27:17;;;;;;;17.77;6.00;;;25.10;62.70;;;;;;4756442;30;20059;-85